createdAt,value
2018-05-08T00:00:49.055Z,97922.48
2018-05-08T00:01:52.212Z,97917.47
2018-05-08T00:02:55.992Z,97920.81
2018-05-08T00:03:58.826Z,97920.56
2018-05-08T00:05:01.554Z,97913.98
2018-05-08T00:06:04.608Z,97916.22
2018-05-08T00:07:07.481Z,97917.50
2018-05-08T00:08:10.725Z,97913.19
2018-05-08T00:09:16.667Z,97913.36
2018-05-08T00:10:19.433Z,97914.08
2018-05-08T00:11:22.169Z,97910.41
2018-05-08T00:12:24.889Z,97907.80
2018-05-08T00:13:28.227Z,97903.41
2018-05-08T00:14:31.467Z,97900.45
2018-05-08T00:15:34.241Z,97897.41
2018-05-08T00:16:37.722Z,97902.17
2018-05-08T00:17:40.433Z,97895.62
2018-05-08T00:18:43.192Z,97900.67
2018-05-08T00:19:45.995Z,97902.73
2018-05-08T00:20:49.136Z,97898.63
2018-05-08T00:21:51.888Z,97901.72
2018-05-08T00:22:54.637Z,97899.50
2018-05-08T00:23:57.471Z,97896.73
2018-05-08T00:25:00.208Z,97895.09
2018-05-08T00:26:03.044Z,97892.42
2018-05-08T00:27:06.245Z,97896.39
2018-05-08T00:28:09.121Z,97895.30
2018-05-08T00:29:12.058Z,97891.91
2018-05-08T00:30:14.859Z,97884.19
2018-05-08T00:31:17.746Z,97884.09
2018-05-08T00:32:20.551Z,97886.89
2018-05-08T00:33:23.727Z,97877.30
2018-05-08T00:34:26.496Z,97879.22
2018-05-08T00:35:29.263Z,97880.55
2018-05-08T00:36:32.049Z,97884.19
2018-05-08T00:37:34.857Z,97882.36
2018-05-08T00:38:37.625Z,97878.98
2018-05-08T00:39:40.836Z,97883.36
2018-05-08T00:40:43.877Z,97883.19
2018-05-08T00:41:46.694Z,97882.75
2018-05-08T00:42:49.433Z,97884.61
2018-05-08T00:43:52.570Z,97883.12
2018-05-08T00:44:55.323Z,97882.75
2018-05-08T00:45:58.437Z,97881.45
2018-05-08T00:47:02.587Z,97879.84
2018-05-08T00:48:05.457Z,97883.80
2018-05-08T00:49:08.306Z,97876.94
2018-05-08T00:50:11.572Z,97882.41
2018-05-08T00:51:14.324Z,97880.35
2018-05-08T00:52:17.585Z,97878.41
2018-05-08T00:53:20.370Z,97876.80
2018-05-08T00:54:23.127Z,97879.19
2018-05-08T00:55:25.925Z,97877.41
2018-05-08T00:56:28.663Z,97875.63
2018-05-08T00:57:31.498Z,97874.30
2018-05-08T00:58:34.559Z,97875.02
2018-05-08T00:59:37.301Z,97875.91
2018-05-08T01:00:40.134Z,97871.73
2018-05-08T01:01:43.167Z,97873.25
2018-05-08T01:02:45.958Z,97873.43
2018-05-08T01:03:49.617Z,97873.98
2018-05-08T01:04:53.166Z,97875.92
2018-05-08T01:05:57.444Z,97871.81
2018-05-08T01:07:07.456Z,97877.86
2018-05-08T01:08:10.485Z,97871.49
2018-05-08T01:10:22.696Z,97869.97
2018-05-08T01:11:25.796Z,97873.31
2018-05-08T01:12:29.580Z,97869.94
2018-05-08T01:13:32.637Z,97870.28
2018-05-08T01:14:35.466Z,97868.17
2018-05-08T01:15:38.336Z,97875.16
2018-05-08T01:16:41.254Z,97869.47
2018-05-08T01:17:44.493Z,97866.39
2018-05-08T01:18:47.482Z,97861.94
2018-05-08T01:19:50.333Z,97866.73
2018-05-08T01:20:53.309Z,97861.11
2018-05-08T01:21:57.859Z,97860.91
2018-05-08T01:23:01.333Z,97860.13
2018-05-08T01:24:04.671Z,97856.12
2018-05-08T01:25:07.452Z,97857.36
2018-05-08T01:26:10.365Z,97860.72
2018-05-08T01:27:13.778Z,97854.27
2018-05-08T01:28:16.617Z,97855.22
2018-05-08T01:29:21.047Z,97857.44
2018-05-08T01:30:23.845Z,97856.41
2018-05-08T01:31:26.583Z,97854.73
2018-05-08T01:32:29.296Z,97845.27
2018-05-08T01:33:32.085Z,97848.70
2018-05-08T01:34:34.887Z,97846.33
2018-05-08T01:35:38.217Z,97851.53
2018-05-08T01:36:40.984Z,97846.49
2018-05-08T01:37:43.748Z,97848.34
2018-05-08T01:38:46.664Z,97843.30
2018-05-08T01:39:49.449Z,97846.04
2018-05-08T01:40:52.200Z,97845.86
2018-05-08T01:41:58.092Z,97844.55
2018-05-08T01:43:01.151Z,97846.80
2018-05-08T01:44:05.741Z,97851.37
2018-05-08T01:45:08.490Z,97846.63
2018-05-08T01:46:11.416Z,97842.80
2018-05-08T01:47:14.181Z,97845.20
2018-05-08T01:48:17.365Z,97844.55
2018-05-08T01:49:20.239Z,97843.63
2018-05-08T01:50:23.041Z,97848.52
2018-05-08T01:51:25.806Z,97850.59
2018-05-08T01:52:28.664Z,97845.41
2018-05-08T01:53:31.501Z,97842.73
2018-05-08T01:54:34.830Z,97846.09
2018-05-08T01:55:37.778Z,97843.88
2018-05-08T01:56:40.609Z,97849.52
2018-05-08T01:57:43.408Z,97844.71
2018-05-08T01:58:46.239Z,97846.34
2018-05-08T01:59:49.109Z,97845.10
2018-05-08T02:00:52.235Z,97846.78
2018-05-08T02:01:55.048Z,97844.52
2018-05-08T02:02:57.977Z,97847.09
2018-05-08T02:04:00.794Z,97842.00
2018-05-08T02:05:03.627Z,97841.84
2018-05-08T02:06:06.426Z,97837.91
2018-05-08T02:07:09.803Z,97837.28
2018-05-08T02:08:12.584Z,97835.90
2018-05-08T02:09:15.433Z,97833.23
2018-05-08T02:10:18.245Z,97839.97
2018-05-08T02:11:21.056Z,97835.23
2018-05-08T02:12:23.831Z,97832.68
2018-05-08T02:13:27.091Z,97833.45
2018-05-08T02:14:29.872Z,97836.81
2018-05-08T02:15:32.655Z,97837.70
2018-05-08T02:16:35.449Z,97831.69
2018-05-08T02:17:38.239Z,97837.73
2018-05-08T02:18:41.028Z,97834.52
2018-05-08T02:19:44.360Z,97837.39
2018-05-08T02:20:47.232Z,97838.73
2018-05-08T02:21:50.023Z,97829.23
2018-05-08T02:22:52.806Z,97829.70
2018-05-08T02:23:55.559Z,97835.98
2018-05-08T02:24:58.336Z,97833.52
2018-05-08T02:26:01.154Z,97833.39
2018-05-08T02:27:04.017Z,97834.62
2018-05-08T02:28:06.845Z,97839.36
2018-05-08T02:29:09.675Z,97833.26
2018-05-08T02:30:12.473Z,97833.57
2018-05-08T02:31:15.836Z,97831.94
2018-05-08T02:32:18.615Z,97832.88
2018-05-08T02:33:21.416Z,97838.74
2018-05-08T02:34:24.203Z,97835.16
2018-05-08T02:35:27.038Z,97832.97
2018-05-08T02:36:29.891Z,97831.11
2018-05-08T02:37:33.284Z,97826.78
2018-05-08T02:38:36.144Z,97834.58
2018-05-08T02:39:38.972Z,97832.66
2018-05-08T02:40:41.814Z,97828.22
2018-05-08T02:41:44.569Z,97827.08
2018-05-08T02:42:47.384Z,97829.98
2018-05-08T02:43:50.650Z,97822.57
2018-05-08T02:44:53.983Z,97828.44
2018-05-08T02:45:56.816Z,97826.61
2018-05-08T02:46:59.607Z,97830.55
2018-05-08T02:48:02.445Z,97824.01
2018-05-08T02:49:05.298Z,97830.17
2018-05-08T02:50:08.164Z,97829.03
2018-05-08T02:51:11.099Z,97830.48
2018-05-08T02:52:13.906Z,97828.34
2018-05-08T02:53:16.864Z,97825.79
2018-05-08T02:54:19.668Z,97830.16
2018-05-08T02:55:22.882Z,97821.41
2018-05-08T02:56:25.736Z,97826.06
2018-05-08T02:57:28.543Z,97824.92
2018-05-08T02:58:31.320Z,97825.31
2018-05-08T02:59:34.158Z,97831.66
2018-05-08T03:00:37.036Z,97822.32
2018-05-08T03:01:40.318Z,97818.66
2018-05-08T03:02:43.215Z,97823.64
2018-05-08T03:03:45.975Z,97817.52
2018-05-08T03:04:48.816Z,97823.17
2018-05-08T03:05:51.669Z,97827.38
2018-05-08T03:06:54.443Z,97819.19
2018-05-08T03:07:57.775Z,97821.28
2018-05-08T03:09:00.691Z,97821.13
2018-05-08T03:10:03.504Z,97817.46
2018-05-08T03:11:06.322Z,97814.70
2018-05-08T03:12:09.108Z,97814.45
2018-05-08T03:13:11.902Z,97815.52
2018-05-08T03:14:15.219Z,97814.47
2018-05-08T03:15:17.995Z,97816.98
2018-05-08T03:16:20.800Z,97812.33
2018-05-08T03:17:23.633Z,97816.84
2018-05-08T03:18:26.456Z,97810.48
2018-05-08T03:19:29.224Z,97813.77
2018-05-08T03:20:32.415Z,97808.11
2018-05-08T03:21:35.213Z,97803.16
2018-05-08T03:22:38.052Z,97806.98
2018-05-08T03:23:41.292Z,97807.96
2018-05-08T03:24:44.129Z,97802.53
2018-05-08T03:25:46.888Z,97801.02
2018-05-08T03:26:50.081Z,97797.03
2018-05-08T03:27:52.916Z,97794.67
2018-05-08T03:28:56.249Z,97805.55
2018-05-08T03:29:59.069Z,97801.41
2018-05-08T03:31:01.841Z,97799.89
2018-05-08T03:32:04.604Z,97795.70
2018-05-08T03:33:07.712Z,97795.09
2018-05-08T03:34:10.588Z,97795.02
2018-05-08T03:35:13.793Z,97791.70
2018-05-08T03:36:16.821Z,97802.45
2018-05-08T03:37:20.627Z,97790.86
2018-05-08T03:38:23.432Z,97791.08
2018-05-08T03:39:26.754Z,97792.23
2018-05-08T03:40:29.548Z,97794.38
2018-05-08T03:41:32.312Z,97800.38
2018-05-08T03:42:35.072Z,97798.73
2018-05-08T03:43:37.908Z,97795.81
2018-05-08T03:44:40.720Z,97791.86
2018-05-08T03:45:43.926Z,97791.94
2018-05-08T03:46:46.798Z,97792.88
2018-05-08T03:47:49.577Z,97801.36
2018-05-08T03:48:52.429Z,97797.80
2018-05-08T03:49:55.221Z,97802.91
2018-05-08T03:50:58.154Z,97806.30
2018-05-08T03:52:01.261Z,97796.95
2018-05-08T03:53:04.143Z,97795.95
2018-05-08T03:54:07.003Z,97799.41
2018-05-08T03:55:09.787Z,97792.77
2018-05-08T03:56:12.599Z,97793.92
2018-05-08T03:57:15.388Z,97797.39
2018-05-08T03:58:18.500Z,97795.56
2018-05-08T03:59:21.261Z,97793.42
2018-05-08T04:00:24.086Z,97804.49
2018-05-08T04:01:26.955Z,97799.81
2018-05-08T04:02:29.729Z,97795.89
2018-05-08T04:03:32.527Z,97800.95
2018-05-08T04:04:35.758Z,97790.93
2018-05-08T04:05:38.620Z,97802.91
2018-05-08T04:06:41.410Z,97794.00
2018-05-08T04:07:44.165Z,97793.97
2018-05-08T04:08:47.025Z,97788.95
2018-05-08T04:09:49.793Z,97792.63
2018-05-08T04:10:53.025Z,97799.94
2018-05-08T04:11:55.862Z,97787.64
2018-05-08T04:12:58.683Z,97791.95
2018-05-08T04:14:01.503Z,97786.14
2018-05-08T04:15:04.382Z,97791.03
2018-05-08T04:16:07.260Z,97786.72
2018-05-08T04:17:10.502Z,97784.34
2018-05-08T04:18:13.362Z,97784.20
2018-05-08T04:19:16.226Z,97783.25
2018-05-08T04:20:19.124Z,97781.58
2018-05-08T04:21:21.980Z,97776.54
2018-05-08T04:22:24.763Z,97782.64
2018-05-08T04:23:27.885Z,97778.37
2018-05-08T04:24:30.761Z,97779.27
2018-05-08T04:25:33.584Z,97781.16
2018-05-08T04:26:36.361Z,97773.45
2018-05-08T04:27:39.201Z,97775.48
2018-05-08T04:28:42.036Z,97768.48
2018-05-08T04:29:45.320Z,97774.34
2018-05-08T04:30:48.212Z,97775.55
2018-05-08T04:31:51.016Z,97767.55
2018-05-08T04:32:53.856Z,97771.62
2018-05-08T04:33:56.672Z,97778.19
2018-05-08T04:34:59.525Z,97770.46
2018-05-08T04:36:02.810Z,97767.27
2018-05-08T04:37:05.684Z,97769.92
2018-05-08T04:38:08.512Z,97769.80
2018-05-08T04:39:11.379Z,97775.48
2018-05-08T04:40:14.199Z,97774.36
2018-05-08T04:41:16.956Z,97767.34
2018-05-08T04:42:20.308Z,97764.69
2018-05-08T04:43:23.147Z,97774.02
2018-05-08T04:44:25.943Z,97770.69
2018-05-08T04:45:28.716Z,97767.44
2018-05-08T04:46:31.487Z,97771.39
2018-05-08T04:47:34.535Z,97765.91
2018-05-08T04:48:37.703Z,97765.13
2018-05-08T04:49:40.489Z,97766.25
2018-05-08T04:50:43.285Z,97764.30
2018-05-08T04:51:46.134Z,97767.37
2018-05-08T04:52:48.963Z,97754.88
2018-05-08T04:53:51.790Z,97756.88
2018-05-08T04:54:55.090Z,97760.56
2018-05-08T04:55:57.993Z,97762.58
2018-05-08T04:57:00.906Z,97765.42
2018-05-08T04:58:03.787Z,97766.27
2018-05-08T04:59:06.551Z,97772.47
2018-05-08T05:00:09.484Z,97763.08
2018-05-08T05:01:12.899Z,97761.25
2018-05-08T05:02:15.722Z,97759.95
2018-05-08T05:03:18.552Z,97762.08
2018-05-08T05:04:21.564Z,97760.17
2018-05-08T05:05:24.307Z,97751.92
2018-05-08T05:06:28.181Z,97751.77
2018-05-08T05:07:31.056Z,97747.78
2018-05-08T05:08:33.903Z,97751.08
2018-05-08T05:09:36.694Z,97748.33
2018-05-08T05:10:39.481Z,97740.61
2018-05-08T05:11:42.454Z,97742.38
2018-05-08T05:12:45.609Z,97742.30
2018-05-08T05:13:48.477Z,97741.39
2018-05-08T05:14:51.270Z,97735.36
2018-05-08T05:15:54.067Z,97737.78
2018-05-08T05:16:56.841Z,97735.88
2018-05-08T05:17:59.716Z,97734.58
2018-05-08T05:19:02.488Z,97732.66
2018-05-08T05:20:05.281Z,97737.34
2018-05-08T05:21:08.232Z,97735.58
2018-05-08T05:22:11.025Z,97736.18
2018-05-08T05:23:13.806Z,97729.40
2018-05-08T05:24:16.583Z,97730.53
2018-05-08T05:25:19.879Z,97733.44
2018-05-08T05:26:22.747Z,97728.94
2018-05-08T05:27:25.534Z,97732.61
2018-05-08T05:28:28.401Z,97740.47
2018-05-08T05:29:31.241Z,97735.58
2018-05-08T05:30:34.057Z,97732.66
2018-05-08T05:31:37.413Z,97738.32
2018-05-08T05:32:40.230Z,97740.45
2018-05-08T05:33:43.025Z,97737.50
2018-05-08T05:34:45.821Z,97733.66
2018-05-08T05:35:48.595Z,97733.25
2018-05-08T05:36:51.393Z,97736.80
2018-05-08T05:37:54.535Z,97736.77
2018-05-08T05:38:57.340Z,97737.46
2018-05-08T05:40:00.133Z,97735.29
2018-05-08T05:41:03.065Z,97736.89
2018-05-08T05:42:05.873Z,97737.24
2018-05-08T05:43:08.862Z,97728.59
2018-05-08T05:44:12.090Z,97732.95
2018-05-08T05:45:14.952Z,97733.18
2018-05-08T05:46:17.813Z,97734.02
2018-05-08T05:47:20.643Z,97733.98
2018-05-08T05:48:23.435Z,97734.46
2018-05-08T05:49:26.318Z,97727.59
2018-05-08T05:50:29.463Z,97727.08
2018-05-08T05:51:32.267Z,97730.52
2018-05-08T05:52:35.067Z,97726.20
2018-05-08T05:53:37.840Z,97726.52
2018-05-08T05:54:40.611Z,97723.33
2018-05-08T05:55:43.392Z,97723.92
2018-05-08T05:56:46.491Z,97721.71
2018-05-08T05:57:49.299Z,97721.24
2018-05-08T05:58:52.124Z,97719.78
2018-05-08T05:59:55.059Z,97720.77
2018-05-08T06:00:57.865Z,97720.22
2018-05-08T06:02:00.641Z,97709.98
2018-05-08T06:03:03.907Z,97713.28
2018-05-08T06:04:06.724Z,97714.09
2018-05-08T06:05:09.629Z,97712.30
2018-05-08T06:06:12.418Z,97716.33
2018-05-08T06:07:15.188Z,97713.74
2018-05-08T06:08:17.996Z,97707.59
2018-05-08T06:09:21.395Z,97712.64
2018-05-08T06:10:24.175Z,97714.66
2018-05-08T06:11:26.959Z,97716.31
2018-05-08T06:12:29.754Z,97712.98
2018-05-08T06:13:32.667Z,97714.58
2018-05-08T06:14:36.143Z,97716.12
2018-05-08T06:15:40.155Z,97710.78
2018-05-08T06:16:42.971Z,97716.91
2018-05-08T06:17:45.788Z,97715.72
2018-05-08T06:18:49.661Z,97717.27
2018-05-08T06:19:52.759Z,97722.80
2018-05-08T06:20:55.893Z,97718.23
2018-05-08T06:21:59.096Z,97718.49
2018-05-08T06:23:01.888Z,97715.63
2018-05-08T06:24:04.681Z,97717.78
2018-05-08T06:25:07.509Z,97719.73
2018-05-08T06:26:10.317Z,97715.68
2018-05-08T06:27:13.471Z,97712.96
2018-05-08T06:28:16.724Z,97709.65
2018-05-08T06:29:20.475Z,97709.78
2018-05-08T06:30:23.280Z,97710.06
2018-05-08T06:31:26.103Z,97702.62
2018-05-08T06:32:28.886Z,97709.73
2018-05-08T06:33:31.705Z,97714.08
2018-05-08T06:34:34.862Z,97714.19
2018-05-08T06:35:37.668Z,97712.50
2018-05-08T06:36:40.442Z,97715.45
2018-05-08T06:37:43.297Z,97709.24
2018-05-08T06:38:46.136Z,97714.78
2018-05-08T06:39:48.942Z,97708.86
2018-05-08T06:40:52.273Z,97712.18
2018-05-08T06:41:55.393Z,97712.33
2018-05-08T06:42:58.165Z,97708.06
2018-05-08T06:44:00.996Z,97709.92
2018-05-08T06:45:03.831Z,97707.02
2018-05-08T06:46:06.699Z,97707.33
2018-05-08T06:47:10.553Z,97708.16
2018-05-08T06:48:13.331Z,97707.04
2018-05-08T06:49:16.150Z,97709.22
2018-05-08T06:50:18.981Z,97708.57
2018-05-08T06:51:21.782Z,97702.41
2018-05-08T06:52:24.639Z,97706.48
2018-05-08T06:53:27.417Z,97711.83
2018-05-08T06:54:30.428Z,97705.03
2018-05-08T06:55:33.302Z,97710.77
2018-05-08T06:56:36.124Z,97713.00
2018-05-08T06:57:38.928Z,97709.81
2018-05-08T06:58:41.769Z,97703.93
2018-05-08T06:59:44.584Z,97712.14
2018-05-08T07:00:47.388Z,97708.45
2018-05-08T07:01:50.235Z,97708.58
2018-05-08T07:02:53.048Z,97707.84
2018-05-08T07:03:56.208Z,97705.72
2018-05-08T07:04:58.999Z,97715.59
2018-05-08T07:06:01.813Z,97715.22
2018-05-08T07:07:04.600Z,97712.22
2018-05-08T07:08:07.418Z,97705.70
2018-05-08T07:09:10.343Z,97713.02
2018-05-08T07:10:13.501Z,97715.07
2018-05-08T07:11:16.324Z,97712.67
2018-05-08T07:12:19.260Z,97713.44
2018-05-08T07:13:22.080Z,97711.00
2018-05-08T07:14:24.871Z,97715.51
2018-05-08T07:15:27.656Z,97708.58
2018-05-08T07:16:30.782Z,97710.62
2018-05-08T07:17:33.628Z,97709.99
2018-05-08T07:18:36.429Z,97716.44
2018-05-08T07:19:39.179Z,97707.34
2018-05-08T07:20:42.148Z,97707.89
2018-05-08T07:21:45.236Z,97706.27
2018-05-08T07:22:48.485Z,97710.52
2018-05-08T07:23:51.411Z,97711.67
2018-05-08T07:24:54.311Z,97708.78
2018-05-08T07:25:57.089Z,97705.21
2018-05-08T07:26:59.976Z,97712.77
2018-05-08T07:28:02.729Z,97708.48
2018-05-08T07:29:05.937Z,97710.48
2018-05-08T07:30:08.752Z,97713.16
2018-05-08T07:31:11.518Z,97705.84
2018-05-08T07:32:14.339Z,97708.61
2018-05-08T07:33:17.142Z,97712.04
2018-05-08T07:34:19.951Z,97712.19
2018-05-08T07:35:23.124Z,97710.05
2018-05-08T07:36:25.913Z,97709.92
2018-05-08T07:37:28.849Z,97707.49
2018-05-08T07:38:31.653Z,97708.13
2018-05-08T07:39:34.476Z,97706.74
2018-05-08T07:40:37.320Z,97708.88
2018-05-08T07:41:40.088Z,97696.64
2018-05-08T07:42:43.027Z,97714.18
2018-05-08T07:43:45.889Z,97717.62
2018-05-08T07:44:48.718Z,97714.72
2018-05-08T07:45:51.523Z,97713.50
2018-05-08T07:46:54.419Z,97721.91
2018-05-08T07:47:57.549Z,97714.19
2018-05-08T07:49:00.603Z,97700.31
2018-05-08T07:50:03.667Z,97710.30
2018-05-08T07:51:06.468Z,97717.89
2018-05-08T07:52:10.078Z,97711.45
2018-05-08T07:53:13.300Z,97710.55
2018-05-08T07:54:16.218Z,97701.59
2018-05-08T07:55:18.989Z,97710.42
2018-05-08T07:56:21.839Z,97712.69
2018-05-08T07:57:24.651Z,97706.27
2018-05-08T07:58:27.819Z,97703.62
2018-05-08T07:59:30.658Z,97700.84
2018-05-08T08:00:33.510Z,97705.50
2018-05-08T08:01:36.325Z,97701.34
2018-05-08T08:02:39.183Z,97701.34
2018-05-08T08:03:42.300Z,97694.38
2018-05-08T08:04:45.570Z,97703.73
2018-05-08T08:05:48.383Z,97697.47
2018-05-08T08:06:51.208Z,97705.78
2018-05-08T08:07:54.029Z,97706.45
2018-05-08T08:08:56.840Z,97701.14
2018-05-08T08:10:00.107Z,97704.26
2018-05-08T08:11:03.378Z,97707.52
2018-05-08T08:12:06.193Z,97705.39
2018-05-08T08:13:08.980Z,97708.23
2018-05-08T08:14:11.817Z,97706.66
2018-05-08T08:15:14.742Z,97701.58
2018-05-08T08:16:17.530Z,97701.88
2018-05-08T08:17:20.866Z,97700.03
2018-05-08T08:18:23.808Z,97694.68
2018-05-08T08:19:26.624Z,97699.60
2018-05-08T08:20:29.467Z,97701.06
2018-05-08T08:21:32.455Z,97693.79
2018-05-08T08:22:35.233Z,97694.72
2018-05-08T08:23:38.513Z,97705.34
2018-05-08T08:24:41.578Z,97685.56
2018-05-08T08:25:44.447Z,97703.47
2018-05-08T08:26:47.838Z,97695.72
2018-05-08T08:27:50.684Z,97689.50
2018-05-08T08:28:53.529Z,97693.67
2018-05-08T08:29:56.740Z,97691.27
2018-05-08T08:30:59.544Z,97695.34
2018-05-08T08:32:02.434Z,97691.36
2018-05-08T08:33:05.397Z,97695.91
2018-05-08T08:34:08.242Z,97692.30
2018-05-08T08:35:11.057Z,97685.25
2018-05-08T08:36:14.238Z,97684.95
2018-05-08T08:37:17.087Z,97681.17
2018-05-08T08:38:19.917Z,97682.95
2018-05-08T08:39:22.827Z,97673.14
2018-05-08T08:40:25.692Z,97677.03
2018-05-08T08:41:28.484Z,97678.33
2018-05-08T08:42:31.885Z,97673.65
2018-05-08T08:43:34.662Z,97688.45
2018-05-08T08:44:37.647Z,97673.36
2018-05-08T08:45:40.472Z,97671.55
2018-05-08T08:46:43.267Z,97678.42
2018-05-08T08:47:46.192Z,97674.53
2018-05-08T08:48:49.373Z,97667.52
2018-05-08T08:49:52.333Z,97679.33
2018-05-08T08:50:55.112Z,97670.40
2018-05-08T08:51:57.909Z,97663.57
2018-05-08T08:53:00.832Z,97671.83
2018-05-08T08:54:03.679Z,97669.40
2018-05-08T08:55:06.992Z,97670.34
2018-05-08T08:56:09.870Z,97665.05
2018-05-08T08:57:12.718Z,97665.00
2018-05-08T08:58:15.567Z,97665.14
2018-05-08T08:59:18.409Z,97671.91
2018-05-08T09:00:21.215Z,97667.10
2018-05-08T09:01:24.560Z,97664.77
2018-05-08T09:02:27.416Z,97665.20
2018-05-08T09:03:30.247Z,97664.66
2018-05-08T09:04:33.071Z,97660.40
2018-05-08T09:05:35.886Z,97668.48
2018-05-08T09:06:38.706Z,97661.78
2018-05-08T09:07:41.795Z,97658.13
2018-05-08T09:08:45.261Z,97658.75
2018-05-08T09:09:48.058Z,97656.08
2018-05-08T09:10:50.985Z,97659.04
2018-05-08T09:11:53.788Z,97650.56
2018-05-08T09:12:56.600Z,97653.94
2018-05-08T09:14:00.114Z,97660.41
2018-05-08T09:15:02.918Z,97654.98
2018-05-08T09:16:05.776Z,97657.66
2018-05-08T09:17:08.654Z,97653.95
2018-05-08T09:18:11.461Z,97650.49
2018-05-08T09:19:14.251Z,97644.68
2018-05-08T09:20:17.517Z,97650.43
2018-05-08T09:21:20.278Z,97650.14
2018-05-08T09:22:23.167Z,97642.45
2018-05-08T09:23:26.027Z,97641.66
2018-05-08T09:24:29.400Z,97647.72
2018-05-08T09:25:32.300Z,97636.78
2018-05-08T09:26:35.645Z,97639.00
2018-05-08T09:27:38.427Z,97641.55
2018-05-08T09:28:41.230Z,97636.02
2018-05-08T09:29:44.082Z,97632.32
2018-05-08T09:30:46.910Z,97629.85
2018-05-08T09:31:49.790Z,97628.85
2018-05-08T09:32:53.118Z,97638.37
2018-05-08T09:33:55.995Z,97624.07
2018-05-08T09:34:58.995Z,97626.83
2018-05-08T09:36:01.853Z,97623.25
2018-05-08T09:37:04.688Z,97624.72
2018-05-08T09:38:07.572Z,97628.16
2018-05-08T09:39:10.743Z,97626.05
2018-05-08T09:40:13.541Z,97621.74
2018-05-08T09:41:16.424Z,97630.59
2018-05-08T09:42:19.257Z,97625.19
2018-05-08T09:43:22.027Z,97627.24
2018-05-08T09:44:24.887Z,97620.61
2018-05-08T09:45:28.132Z,97622.69
2018-05-08T09:46:32.213Z,97623.33
2018-05-08T09:47:35.079Z,97622.27
2018-05-08T09:48:37.923Z,97624.42
2018-05-08T09:49:40.855Z,97627.44
2018-05-08T09:50:43.684Z,97617.42
2018-05-08T09:51:46.894Z,97621.98
2018-05-08T09:52:50.235Z,97620.23
2018-05-08T09:53:53.033Z,97616.48
2018-05-08T09:54:55.955Z,97612.94
2018-05-08T09:55:58.923Z,97614.84
2018-05-08T09:57:01.823Z,97611.22
2018-05-08T09:58:05.185Z,97612.00
2018-05-08T09:59:08.532Z,97607.11
2018-05-08T10:00:11.369Z,97603.18
2018-05-08T10:01:14.232Z,97597.38
2018-05-08T10:02:17.222Z,97596.86
2018-05-08T10:03:20.060Z,97603.63
2018-05-08T10:04:23.336Z,97597.06
2018-05-08T10:05:29.130Z,97595.67
2018-05-08T10:06:32.783Z,97595.52
2018-05-08T10:07:35.613Z,97599.70
2018-05-08T10:08:40.063Z,97596.48
2018-05-08T10:09:46.008Z,97589.60
2018-05-08T10:10:49.256Z,97593.34
2018-05-08T10:11:52.061Z,97585.75
2018-05-08T10:12:58.670Z,97593.77
2018-05-08T10:14:02.315Z,97598.14
2018-05-08T10:15:05.397Z,97593.08
2018-05-08T10:16:08.829Z,97589.19
2018-05-08T10:17:12.005Z,97581.09
2018-05-08T10:18:16.029Z,97574.33
2018-05-08T10:19:19.718Z,97590.10
2018-05-08T10:20:22.545Z,97582.98
2018-05-08T10:21:26.572Z,97581.94
2018-05-08T10:22:29.491Z,97578.24
2018-05-08T10:23:33.950Z,97581.93
2018-05-08T10:24:36.865Z,97575.53
2018-05-08T10:25:40.022Z,97574.09
2018-05-08T10:26:42.992Z,97578.20
2018-05-08T10:27:46.208Z,97574.46
2018-05-08T10:28:49.267Z,97573.14
2018-05-08T10:29:52.723Z,97568.72
2018-05-08T10:30:56.094Z,97566.02
2018-05-08T10:31:59.559Z,97566.27
2018-05-08T10:33:02.621Z,97570.52
2018-05-08T10:34:06.071Z,97564.31
2018-05-08T10:35:09.920Z,97570.58
2018-05-08T10:36:12.990Z,97563.56
2018-05-08T10:37:16.441Z,97565.55
2018-05-08T10:38:20.296Z,97567.43
2018-05-08T10:39:24.968Z,97564.61
2018-05-08T10:40:28.888Z,97558.86
2018-05-08T10:41:31.844Z,97568.03
2018-05-08T10:42:35.066Z,97564.31
2018-05-08T10:43:38.041Z,97563.94
2018-05-08T10:44:41.064Z,97562.42
2018-05-08T10:45:43.871Z,97567.44
2018-05-08T10:46:47.417Z,97559.95
2018-05-08T10:47:50.247Z,97564.90
2018-05-08T10:48:53.976Z,97563.66
2018-05-08T10:49:56.769Z,97557.77
2018-05-08T10:50:59.557Z,97560.45
2018-05-08T10:52:02.370Z,97564.61
2018-05-08T10:53:06.332Z,97563.28
2018-05-08T10:54:09.087Z,97566.50
2018-05-08T10:55:12.606Z,97560.30
2018-05-08T10:56:15.779Z,97556.03
2018-05-08T10:57:19.513Z,97549.36
2018-05-08T10:58:22.453Z,97547.31
2018-05-08T10:59:25.282Z,97550.11
2018-05-08T11:00:28.933Z,97544.06
2018-05-08T11:01:32.178Z,97535.53
2018-05-08T11:02:35.032Z,97557.28
2018-05-08T11:03:37.994Z,97554.34
2018-05-08T11:04:40.771Z,97539.37
2018-05-08T11:05:44.091Z,97547.50
2018-05-08T11:06:46.875Z,97526.38
2018-05-08T11:07:50.266Z,97536.39
2018-05-08T11:08:53.722Z,97536.23
2018-05-08T11:09:57.788Z,97535.09
2018-05-08T11:11:00.627Z,97537.41
2018-05-08T11:12:04.307Z,97545.16
2018-05-08T11:13:07.160Z,97543.86
2018-05-08T11:14:10.299Z,97529.63
2018-05-08T11:15:14.909Z,97521.81
2018-05-08T11:16:18.295Z,97531.34
2018-05-08T11:17:21.172Z,97514.02
2018-05-08T11:18:24.230Z,97533.21
2018-05-08T11:19:27.146Z,97522.02
2018-05-08T11:20:30.516Z,97525.36
2018-05-08T11:21:34.312Z,97516.02
2018-05-08T11:22:37.486Z,97512.73
2018-05-08T11:23:40.359Z,97522.20
2018-05-08T11:24:43.146Z,97524.12
2018-05-08T11:25:45.916Z,97515.94
2018-05-08T11:26:49.168Z,97511.69
2018-05-08T11:27:53.257Z,97511.91
2018-05-08T11:28:56.653Z,97513.03
2018-05-08T11:29:59.428Z,97511.13
2018-05-08T11:31:02.460Z,97506.98
2018-05-08T11:32:06.133Z,97510.45
2018-05-08T11:33:10.647Z,97509.27
2018-05-08T11:34:14.368Z,97504.61
2018-05-08T11:35:17.312Z,97495.92
2018-05-08T11:36:22.075Z,97501.37
2018-05-08T11:37:25.208Z,97498.34
2018-05-08T11:38:27.983Z,97494.11
2018-05-08T11:39:31.686Z,97486.22
2018-05-08T11:40:34.811Z,97487.05
2018-05-08T11:41:37.683Z,97476.75
2018-05-08T11:42:41.036Z,97481.22
2018-05-08T11:43:43.822Z,97479.63
2018-05-08T11:44:47.099Z,97488.51
2018-05-08T11:45:50.719Z,97480.80
2018-05-08T11:46:53.511Z,97484.81
2018-05-08T11:47:56.427Z,97488.04
2018-05-08T11:48:59.354Z,97486.67
2018-05-08T11:50:02.314Z,97485.99
2018-05-08T11:51:05.409Z,97489.40
2018-05-08T11:52:08.821Z,97483.25
2018-05-08T11:53:11.683Z,97484.31
2018-05-08T11:54:15.269Z,97473.39
2018-05-08T11:55:18.112Z,97473.70
2018-05-08T11:56:20.915Z,97467.19
2018-05-08T11:57:23.695Z,97467.89
2018-05-08T11:58:27.311Z,97465.77
2018-05-08T11:59:30.330Z,97470.92
2018-05-08T12:00:33.137Z,97460.97
2018-05-08T12:01:36.023Z,97465.80
2018-05-08T12:02:38.956Z,97464.81
2018-05-08T12:03:41.791Z,97464.57
2018-05-08T12:04:44.900Z,97466.69
2018-05-08T12:05:47.790Z,97467.22
2018-05-08T12:06:50.642Z,97457.02
2018-05-08T12:07:53.574Z,97455.04
2018-05-08T12:08:56.429Z,97449.89
2018-05-08T12:09:59.209Z,97452.15
2018-05-08T12:11:01.988Z,97450.23
2018-05-08T12:12:04.896Z,97448.32
2018-05-08T12:13:07.796Z,97445.34
2018-05-08T12:14:11.414Z,97460.66
2018-05-08T12:15:15.412Z,97458.04
2018-05-08T12:16:18.506Z,97453.73
2018-05-08T12:17:21.859Z,97451.12
2018-05-08T12:18:24.747Z,97444.12
2018-05-08T12:19:28.293Z,97443.70
2018-05-08T12:20:31.258Z,97449.23
2018-05-08T12:21:34.134Z,97447.12